Wind From: 10-12-2017 19:04 Until: 11-12-2017 16:00 warning for: Wind Level: Orange info button

Power and phone distribution networks may be disrupted for relatively long periods., Roofs and chimneys can be damaged. , Tree branches may break. , Vehicles can be deported. , Traffic may be disrupted, particularly on secondary roads in forest areas. Limit your trips. , Limit your speed in highway driving, especially if you drive a vehicle or hitch sensitive to wind. , Do not go for walks in forests or along the coast., In town, be vigilant against possible falling objects., Do not work on roofs and do not touch any electrical line fallen on the ground., Store or secure sensitive objects to wind or likely to be damaged., Always install power generators outside buildings. 


Meteo18 Weather Cam more information Meteo18 Weather Cam


Thunder radar more information blitzortung!


Rain radar more information rain snow radar


Visit our other weather sites:

Template documentation
and downloads

And another site



Weather Underground History page Text

Daily Summary for July 31, 2017 Units:  Both    English   Metric
« Previous Day
Next Day »
Daily Weekly Monthly Yearly Custom
  High: Low: Average:
Temperature: 78.1 °F /  25.6 °C 57.6 °F /  14.2 °C 68 °F /  20 °C
Dew Point: 61.9 °F /  16.6 °C 54 °F /  12.2 °C 58.1 °F /  14.5 °C
Humidity: 92 % 54 % 72 %
Wind Speed: 11 mph /  17.7 km/h - 2.5 mph /  4.1 km/h
Wind Gust: 15 mph /  24.1 km/h - -
Wind:- - SSE
Pressure: 30 in /  1016.8 hPa 29.9 in /  1012.8 hPa -
Precipitation: 0.65 in /  16.5 mm    
Historical Graphs
 
 
Tabular Data for July 31, 2017
Time Temperature Dew Point Pressure Wind Wind Speed Wind Gust Humidity Rainfall Rate (Hourly)
00:02 67.5 °F /  19.7 °C 57.4 °F /  14.1 °C 30 in /  1015.8 hPa SSW 1 mph /  1.6 km/h 4 mph /  6.4 km/h 70 % 0 in /  0.0 mm
00:12 66.9 °F /  19.4 °C 57.2 °F /  14.0 °C 30 in /  1015.8 hPa South 3 mph /  4.8 km/h 4 mph /  6.4 km/h 71 % 0 in /  0.0 mm
00:17 66.7 °F /  19.3 °C 57 °F /  13.9 °C 30 in /  1016.1 hPa SSW 2 mph /  3.2 km/h 5 mph /  8.0 km/h 71 % 0 in /  0.0 mm
00:22 66.7 °F /  19.3 °C 56.7 °F /  13.7 °C 30 in /  1016.1 hPa SW 2 mph /  3.2 km/h 5 mph /  8.0 km/h 70 % 0 in /  0.0 mm
00:32 66.7 °F /  19.3 °C 56.7 °F /  13.7 °C 30 in /  1016.1 hPa SSW 1 mph /  1.6 km/h 5 mph /  8.0 km/h 70 % 0 in /  0.0 mm
00:37 66.9 °F /  19.4 °C 56.8 °F /  13.8 °C 30 in /  1016.1 hPa SW 2 mph /  3.2 km/h 5 mph /  8.0 km/h 70 % 0 in /  0.0 mm
00:47 66.7 °F /  19.3 °C 56.7 °F /  13.7 °C 30 in /  1016.1 hPa Calm   4 mph /  6.4 km/h 70 % 0 in /  0.0 mm
00:52 66.6 °F /  19.2 °C 56.8 °F /  13.8 °C 30 in /  1016.1 hPa Calm   4 mph /  6.4 km/h 71 % 0 in /  0.0 mm
01:02 66 °F /  18.9 °C 56.7 °F /  13.7 °C 30 in /  1016.5 hPa Calm   2 mph /  3.2 km/h 72 % 0 in /  0.0 mm
01:09 65.8 °F /  18.8 °C 56.5 °F /  13.6 °C 30 in /  1016.5 hPa Calm     72 % 0 in /  0.0 mm
01:17 66 °F /  18.9 °C 56.3 °F /  13.5 °C 30 in /  1016.5 hPa WSW 1 mph /  1.6 km/h 1 mph /  1.6 km/h 71 % 0 in /  0.0 mm
01:22 66 °F /  18.9 °C 56.3 °F /  13.5 °C 30 in /  1016.1 hPa Calm   2 mph /  3.2 km/h 71 % 0 in /  0.0 mm
01:32 66 °F /  18.9 °C 56.3 °F /  13.5 °C 30 in /  1016.1 hPa Calm   2 mph /  3.2 km/h 71 % 0 in /  0.0 mm
01:42 65.5 °F /  18.6 °C 56.7 °F /  13.7 °C 30 in /  1016.1 hPa Calm   1 mph /  1.6 km/h 73 % 0 in /  0.0 mm
01:52 64.8 °F /  18.2 °C 56.3 °F /  13.5 °C 30 in /  1016.1 hPa Calm   1 mph /  1.6 km/h 74 % 0 in /  0.0 mm
02:02 64.6 °F /  18.1 °C 56.1 °F /  13.4 °C 30 in /  1016.1 hPa SE 1 mph /  1.6 km/h 2 mph /  3.2 km/h 74 % 0 in /  0.0 mm
02:07 64.6 °F /  18.1 °C 56.1 °F /  13.4 °C 30 in /  1016.1 hPa Calm   2 mph /  3.2 km/h 74 % 0 in /  0.0 mm
02:12 64.4 °F /  18.0 °C 55.9 °F /  13.3 °C 30 in /  1016.1 hPa Calm   2 mph /  3.2 km/h 74 % 0 in /  0.0 mm
02:17 64.2 °F /  17.9 °C 56.1 °F /  13.4 °C 30 in /  1016.1 hPa Calm   1 mph /  1.6 km/h 75 % 0 in /  0.0 mm
02:22 63.9 °F /  17.7 °C 56.5 °F /  13.6 °C 30 in /  1016.1 hPa Calm   1 mph /  1.6 km/h 77 % 0 in /  0.0 mm
02:27 63.3 °F /  17.4 °C 56.3 °F /  13.5 °C 30 in /  1016.1 hPa Calm   1 mph /  1.6 km/h 78 % 0 in /  0.0 mm
02:32 63.1 °F /  17.3 °C 56.5 °F /  13.6 °C 30 in /  1016.1 hPa Calm     79 % 0 in /  0.0 mm
02:42 63.7 °F /  17.6 °C 56.3 °F /  13.5 °C 30 in /  1016.1 hPa Calm   1 mph /  1.6 km/h 77 % 0 in /  0.0 mm
02:52 63.9 °F /  17.7 °C 56.1 °F /  13.4 °C 30 in /  1016.1 hPa Calm   2 mph /  3.2 km/h 76 % 0 in /  0.0 mm
02:57 63.7 °F /  17.6 °C 56.3 °F /  13.5 °C 30 in /  1016.1 hPa Calm   1 mph /  1.6 km/h 77 % 0 in /  0.0 mm
03:02 63.3 °F /  17.4 °C 55.9 °F /  13.3 °C 30 in /  1016.1 hPa Calm   1 mph /  1.6 km/h 77 % 0 in /  0.0 mm
03:12 63.1 °F /  17.3 °C 56.1 °F /  13.4 °C 30 in /  1015.8 hPa Calm   1 mph /  1.6 km/h 78 % 0 in /  0.0 mm
03:17 63 °F /  17.2 °C 55.6 °F /  13.1 °C 30 in /  1015.8 hPa Calm   1 mph /  1.6 km/h 77 % 0 in /  0.0 mm
03:22 62.8 °F /  17.1 °C 55.8 °F /  13.2 °C 30 in /  1015.8 hPa Calm   1 mph /  1.6 km/h 78 % 0 in /  0.0 mm
03:32 63 °F /  17.2 °C 55.6 °F /  13.1 °C 30 in /  1015.8 hPa Calm   3 mph /  4.8 km/h 77 % 0 in /  0.0 mm
03:42 63.1 °F /  17.3 °C 55.8 °F /  13.2 °C 30 in /  1015.5 hPa West 1 mph /  1.6 km/h 3 mph /  4.8 km/h 77 % 0 in /  0.0 mm
03:47 63 °F /  17.2 °C 55.6 °F /  13.1 °C 30 in /  1015.5 hPa WNW 2 mph /  3.2 km/h 3 mph /  4.8 km/h 77 % 0 in /  0.0 mm
03:52 63 °F /  17.2 °C 55.6 °F /  13.1 °C 30 in /  1015.5 hPa WNW 2 mph /  3.2 km/h 3 mph /  4.8 km/h 77 % 0 in /  0.0 mm
03:57 63 °F /  17.2 °C 55.6 °F /  13.1 °C 30 in /  1015.5 hPa Calm   3 mph /  4.8 km/h 77 % 0 in /  0.0 mm
04:02 63 °F /  17.2 °C 55.6 °F /  13.1 °C 30 in /  1015.5 hPa WNW 2 mph /  3.2 km/h 4 mph /  6.4 km/h 77 % 0 in /  0.0 mm
04:12 63.3 °F /  17.4 °C 55.6 °F /  13.1 °C 30 in /  1015.5 hPa NE 2 mph /  3.2 km/h 4 mph /  6.4 km/h 76 % 0 in /  0.0 mm
04:17 63.1 °F /  17.3 °C 55.4 °F /  13.0 °C 30 in /  1015.8 hPa ESE 2 mph /  3.2 km/h 5 mph /  8.0 km/h 76 % 0 in /  0.0 mm
04:22 63.1 °F /  17.3 °C 55.4 °F /  13.0 °C 30 in /  1015.5 hPa Calm   5 mph /  8.0 km/h 76 % 0 in /  0.0 mm
04:32 62.1 °F /  16.7 °C 55.4 °F /  13.0 °C 30 in /  1015.5 hPa Calm   4 mph /  6.4 km/h 79 % 0 in /  0.0 mm
04:42 61.2 °F /  16.2 °C 54.9 °F /  12.7 °C 30 in /  1015.8 hPa Calm   4 mph /  6.4 km/h 80 % 0 in /  0.0 mm
04:47 60.6 °F /  15.9 °C 55 °F /  12.8 °C 30 in /  1015.8 hPa Calm   3 mph /  4.8 km/h 82 % 0 in /  0.0 mm
04:52 60.3 °F /  15.7 °C 55 °F /  12.8 °C 30 in /  1015.8 hPa Calm   1 mph /  1.6 km/h 83 % 0 in /  0.0 mm
04:57 60.3 °F /  15.7 °C 55 °F /  12.8 °C 30 in /  1015.8 hPa Calm   1 mph /  1.6 km/h 83 % 0 in /  0.0 mm
05:02 60.1 °F /  15.6 °C 54.9 °F /  12.7 °C 30 in /  1015.5 hPa Calm   1 mph /  1.6 km/h 83 % 0 in /  0.0 mm
05:12 60.6 °F /  15.9 °C 55 °F /  12.8 °C 30 in /  1015.5 hPa Calm   1 mph /  1.6 km/h 82 % 0 in /  0.0 mm
05:17 60.1 °F /  15.6 °C 54.5 °F /  12.5 °C 30 in /  1015.8 hPa WNW 1 mph /  1.6 km/h 1 mph /  1.6 km/h 82 % 0 in /  0.0 mm
05:22 59.5 °F /  15.3 °C 54.7 °F /  12.6 °C 30 in /  1015.8 hPa Calm   2 mph /  3.2 km/h 84 % 0 in /  0.0 mm
05:32 59.4 °F /  15.2 °C 54.9 °F /  12.7 °C 30 in /  1015.8 hPa Calm   2 mph /  3.2 km/h 85 % 0 in /  0.0 mm
05:37 59.2 °F /  15.1 °C 54.7 °F /  12.6 °C 30 in /  1016.1 hPa Calm   2 mph /  3.2 km/h 85 % 0 in /  0.0 mm
05:42 59.4 °F /  15.2 °C 54.9 °F /  12.7 °C 30 in /  1015.8 hPa Calm   1 mph /  1.6 km/h 85 % 0 in /  0.0 mm
05:52 59 °F /  15.0 °C 54.5 °F /  12.5 °C 30 in /  1016.1 hPa Calm     85 % 0 in /  0.0 mm
05:57 58.8 °F /  14.9 °C 54.3 °F /  12.4 °C 30 in /  1016.1 hPa Calm     85 % 0 in /  0.0 mm
06:02 58.6 °F /  14.8 °C 54.5 °F /  12.5 °C 30 in /  1015.8 hPa Calm     86 % 0 in /  0.0 mm
06:12 58.6 °F /  14.8 °C 54.5 °F /  12.5 °C 30 in /  1016.1 hPa Calm     86 % 0 in /  0.0 mm
06:17 58.5 °F /  14.7 °C 54.3 °F /  12.4 °C 30 in /  1016.1 hPa Calm   1 mph /  1.6 km/h 86 % 0 in /  0.0 mm
06:22 58.3 °F /  14.6 °C 54.5 °F /  12.5 °C 30 in /  1015.8 hPa Calm   1 mph /  1.6 km/h 87 % 0 in /  0.0 mm
06:32 57.9 °F /  14.4 °C 54.1 °F /  12.3 °C 30 in /  1016.1 hPa Calm   1 mph /  1.6 km/h 87 % 0 in /  0.0 mm
06:42 57.9 °F /  14.4 °C 54.3 °F /  12.4 °C 30 in /  1016.1 hPa Calm   1 mph /  1.6 km/h 88 % 0 in /  0.0 mm
06:47 57.7 °F /  14.3 °C 54.1 °F /  12.3 °C 30 in /  1016.1 hPa Calm   1 mph /  1.6 km/h 88 % 0 in /  0.0 mm
06:52 57.6 °F /  14.2 °C 54 °F /  12.2 °C 30 in /  1016.1 hPa Calm   2 mph /  3.2 km/h 88 % 0 in /  0.0 mm
07:02 57.6 °F /  14.2 °C 54.3 °F /  12.4 °C 30 in /  1016.1 hPa Calm   1 mph /  1.6 km/h 89 % 0 in /  0.0 mm
07:12 57.6 °F /  14.2 °C 54.3 °F /  12.4 °C 30 in /  1016.1 hPa Calm   1 mph /  1.6 km/h 89 % 0 in /  0.0 mm
07:17 57.9 °F /  14.4 °C 54.7 °F /  12.6 °C 30 in /  1015.8 hPa NNW 2 mph /  3.2 km/h 2 mph /  3.2 km/h 89 % 0 in /  0.0 mm
07:22 58.6 °F /  14.8 °C 55.4 °F /  13.0 °C 30 in /  1015.8 hPa Calm   2 mph /  3.2 km/h 89 % 0 in /  0.0 mm
07:32 59.4 °F /  15.2 °C 55.4 °F /  13.0 °C 30 in /  1015.8 hPa North 2 mph /  3.2 km/h 4 mph /  6.4 km/h 87 % 0 in /  0.0 mm
07:42 59.9 °F /  15.5 °C 55.8 °F /  13.2 °C 30 in /  1015.5 hPa Calm   4 mph /  6.4 km/h 86 % 0 in /  0.0 mm
07:52 61 °F /  16.1 °C 56.5 °F /  13.6 °C 30 in /  1015.5 hPa Calm   5 mph /  8.0 km/h 85 % 0 in /  0.0 mm
07:57 61.5 °F /  16.4 °C 56.7 °F /  13.7 °C 30 in /  1015.8 hPa Calm   4 mph /  6.4 km/h 84 % 0 in /  0.0 mm
08:02 62.4 °F /  16.9 °C 57.2 °F /  14.0 °C 30 in /  1015.8 hPa Calm   4 mph /  6.4 km/h 83 % 0 in /  0.0 mm
08:07 63.1 °F /  17.3 °C 57.2 °F /  14.0 °C 30 in /  1016.1 hPa Calm   2 mph /  3.2 km/h 81 % 0 in /  0.0 mm
08:12 63.5 °F /  17.5 °C 57.6 °F /  14.2 °C 30 in /  1016.1 hPa Calm   2 mph /  3.2 km/h 81 % 0 in /  0.0 mm
08:17 63.3 °F /  17.4 °C 57.4 °F /  14.1 °C 30 in /  1015.8 hPa Calm     81 % 0 in /  0.0 mm
08:22 63.3 °F /  17.4 °C 57.7 °F /  14.3 °C 30 in /  1015.8 hPa Calm     82 % 0 in /  0.0 mm
08:32 63.9 °F /  17.7 °C 57.6 °F /  14.2 °C 30 in /  1016.1 hPa Calm     80 % 0 in /  0.0 mm
08:37 64 °F /  17.8 °C 57.4 °F /  14.1 °C 30 in /  1016.5 hPa Calm     79 % 0 in /  0.0 mm
08:42 63.9 °F /  17.7 °C 57.6 °F /  14.2 °C 30 in /  1016.8 hPa Calm     80 % 0 in /  0.0 mm
08:52 63.9 °F /  17.7 °C 57.6 °F /  14.2 °C 30 in /  1016.1 hPa Calm     80 % 0 in /  0.0 mm
09:02 64.4 °F /  18.0 °C 57.4 °F /  14.1 °C 30 in /  1015.5 hPa NNE 4 mph /  6.4 km/h   78 % 0 in /  0.0 mm
09:12 64.8 °F /  18.2 °C 57.4 °F /  14.1 °C 30 in /  1015.8 hPa ENE 2 mph /  3.2 km/h 6 mph /  9.7 km/h 77 % 0 in /  0.0 mm
09:17 64.8 °F /  18.2 °C 57 °F /  13.9 °C 30 in /  1015.8 hPa NE 3 mph /  4.8 km/h 6 mph /  9.7 km/h 76 % 0 in /  0.0 mm
09:22 64.9 °F /  18.3 °C 56.8 °F /  13.8 °C 30 in /  1015.8 hPa NNE 5 mph /  8.0 km/h 6 mph /  9.7 km/h 75 % 0 in /  0.0 mm
09:32 64.9 °F /  18.3 °C 56.5 °F /  13.6 °C 30 in /  1016.1 hPa NNE 3 mph /  4.8 km/h 7 mph /  11.3 km/h 74 % 0 in /  0.0 mm
09:42 65.5 °F /  18.6 °C 56.7 °F /  13.7 °C 30 in /  1016.5 hPa ENE 3 mph /  4.8 km/h 6 mph /  9.7 km/h 73 % 0 in /  0.0 mm
09:47 65.8 °F /  18.8 °C 56.5 °F /  13.6 °C 30 in /  1016.1 hPa NNE 3 mph /  4.8 km/h 6 mph /  9.7 km/h 72 % 0 in /  0.0 mm
09:52 65.8 °F /  18.8 °C 56.5 °F /  13.6 °C 30 in /  1015.8 hPa NE 3 mph /  4.8 km/h 5 mph /  8.0 km/h 72 % 0 in /  0.0 mm
10:02 65.8 °F /  18.8 °C 56.1 °F /  13.4 °C 30 in /  1015.8 hPa ENE 3 mph /  4.8 km/h 6 mph /  9.7 km/h 71 % 0 in /  0.0 mm
10:12 66.2 °F /  19.0 °C 57.2 °F /  14.0 °C 30 in /  1016.8 hPa Calm   7 mph /  11.3 km/h 73 % 0 in /  0.0 mm
10:17 66.7 °F /  19.3 °C 56.3 °F /  13.5 °C 30 in /  1016.5 hPa ESE 1 mph /  1.6 km/h 7 mph /  11.3 km/h 69 % 0 in /  0.0 mm
10:22 66.9 °F /  19.4 °C 56.8 °F /  13.8 °C 30 in /  1016.5 hPa ENE 3 mph /  4.8 km/h 4 mph /  6.4 km/h 70 % 0 in /  0.0 mm
10:32 66.7 °F /  19.3 °C 56.7 °F /  13.7 °C 30 in /  1016.1 hPa ENE 4 mph /  6.4 km/h 8 mph /  12.9 km/h 70 % 0 in /  0.0 mm
10:37 66.7 °F /  19.3 °C 57 °F /  13.9 °C 30 in /  1016.5 hPa East 1 mph /  1.6 km/h 8 mph /  12.9 km/h 71 % 0 in /  0.0 mm
10:42 67.3 °F /  19.6 °C 57.6 °F /  14.2 °C 30 in /  1016.5 hPa ENE 2 mph /  3.2 km/h 8 mph /  12.9 km/h 71 % 0 in /  0.0 mm
10:52 68.5 °F /  20.3 °C 57.6 °F /  14.2 °C 30 in /  1016.1 hPa Calm   4 mph /  6.4 km/h 68 % 0 in /  0.0 mm
10:57 68.7 °F /  20.4 °C 57.7 °F /  14.3 °C 30 in /  1016.1 hPa NE 2 mph /  3.2 km/h 4 mph /  6.4 km/h 68 % 0 in /  0.0 mm
11:02 68.7 °F /  20.4 °C 57.7 °F /  14.3 °C 30 in /  1016.1 hPa ENE 1 mph /  1.6 km/h 4 mph /  6.4 km/h 68 % 0 in /  0.0 mm
11:12 68.2 °F /  20.1 °C 57.2 °F /  14.0 °C 30 in /  1015.5 hPa Calm   4 mph /  6.4 km/h 68 % 0 in /  0.0 mm
11:22 68.5 °F /  20.3 °C 57.2 °F /  14.0 °C 30 in /  1015.5 hPa ENE 2 mph /  3.2 km/h 8 mph /  12.9 km/h 67 % 0 in /  0.0 mm
11:32 69.3 °F /  20.7 °C 57.4 °F /  14.1 °C 30 in /  1015.5 hPa East 6 mph /  9.7 km/h 7 mph /  11.3 km/h 66 % 0 in /  0.0 mm
11:42 69.3 °F /  20.7 °C 56.1 °F /  13.4 °C 30 in /  1015.5 hPa ENE 1 mph /  1.6 km/h 8 mph /  12.9 km/h 63 % 0 in /  0.0 mm
11:52 69.4 °F /  20.8 °C 56.7 °F /  13.7 °C 30 in /  1015.5 hPa NE 4 mph /  6.4 km/h 8 mph /  12.9 km/h 64 % 0 in /  0.0 mm
11:57 70 °F /  21.1 °C 56.8 °F /  13.8 °C 30 in /  1015.1 hPa NNE 1 mph /  1.6 km/h 8 mph /  12.9 km/h 63 % 0 in /  0.0 mm
12:02 70.5 °F /  21.4 °C 57.4 °F /  14.1 °C 30 in /  1015.5 hPa ENE 2 mph /  3.2 km/h 8 mph /  12.9 km/h 63 % 0 in /  0.0 mm
12:12 71.1 °F /  21.7 °C 57.4 °F /  14.1 °C 30 in /  1015.1 hPa NE 7 mph /  11.3 km/h 10 mph /  16.1 km/h 62 % 0 in /  0.0 mm
12:17 71.1 °F /  21.7 °C 56.8 °F /  13.8 °C 30 in /  1015.1 hPa ENE 3 mph /  4.8 km/h 10 mph /  16.1 km/h 61 % 0 in /  0.0 mm
12:22 71.1 °F /  21.7 °C 56.8 °F /  13.8 °C 30 in /  1015.1 hPa NNE 5 mph /  8.0 km/h 10 mph /  16.1 km/h 61 % 0 in /  0.0 mm
12:27 70.9 °F /  21.6 °C 56.8 °F /  13.8 °C 30 in /  1015.1 hPa NNW 5 mph /  8.0 km/h 10 mph /  16.1 km/h 61 % 0 in /  0.0 mm
12:32 71.1 °F /  21.7 °C 58.3 °F /  14.6 °C 30 in /  1015.1 hPa NE 6 mph /  9.7 km/h 10 mph /  16.1 km/h 64 % 0 in /  0.0 mm
12:42 70.5 °F /  21.4 °C 58.6 °F /  14.8 °C 30 in /  1015.5 hPa East 1 mph /  1.6 km/h 10 mph /  16.1 km/h 66 % 0 in /  0.0 mm
12:47 70.5 °F /  21.4 °C 59 °F /  15.0 °C 30 in /  1015.5 hPa SSE 1 mph /  1.6 km/h 10 mph /  16.1 km/h 67 % 0 in /  0.0 mm
12:52 70.9 °F /  21.6 °C 59.4 °F /  15.2 °C 30 in /  1015.1 hPa ESE 3 mph /  4.8 km/h 8 mph /  12.9 km/h 67 % 0 in /  0.0 mm
13:02 71.1 °F /  21.7 °C 59.5 °F /  15.3 °C 30 in /  1015.1 hPa ESE 5 mph /  8.0 km/h 8 mph /  12.9 km/h 67 % 0 in /  0.0 mm
13:12 71.1 °F /  21.7 °C 59.2 °F /  15.1 °C 30 in /  1015.1 hPa NE 3 mph /  4.8 km/h 6 mph /  9.7 km/h 66 % 0 in /  0.0 mm
13:17 71.1 °F /  21.7 °C 58.6 °F /  14.8 °C 30 in /  1015.1 hPa ENE 1 mph /  1.6 km/h 8 mph /  12.9 km/h 65 % 0 in /  0.0 mm
13:22 71.1 °F /  21.7 °C 58.6 °F /  14.8 °C 30 in /  1015.1 hPa SSE 1 mph /  1.6 km/h 8 mph /  12.9 km/h 65 % 0 in /  0.0 mm
13:32 70.9 °F /  21.6 °C 58.5 °F /  14.7 °C 30 in /  1015.1 hPa East 2 mph /  3.2 km/h 8 mph /  12.9 km/h 65 % 0 in /  0.0 mm
13:42 71.6 °F /  22.0 °C 59.2 °F /  15.1 °C 30 in /  1014.8 hPa East 3 mph /  4.8 km/h 7 mph /  11.3 km/h 65 % 0 in /  0.0 mm
13:52 72.1 °F /  22.3 °C 58.8 °F /  14.9 °C 30 in /  1014.8 hPa North 8 mph /  12.9 km/h 9 mph /  14.5 km/h 63 % 0 in /  0.0 mm
13:57 72.7 °F /  22.6 °C 59.4 °F /  15.2 °C 30 in /  1014.4 hPa NE 2 mph /  3.2 km/h 12 mph /  19.3 km/h 63 % 0 in /  0.0 mm
14:02 73.8 °F /  23.2 °C 59 °F /  15.0 °C 30 in /  1014.4 hPa NNE 3 mph /  4.8 km/h 12 mph /  19.3 km/h 60 % 0 in /  0.0 mm
14:12 73.2 °F /  22.9 °C 59.4 °F /  15.2 °C 30 in /  1014.4 hPa ENE 6 mph /  9.7 km/h 10 mph /  16.1 km/h 62 % 0 in /  0.0 mm
14:17 73.6 °F /  23.1 °C 59.4 °F /  15.2 °C 30 in /  1014.4 hPa ENE 3 mph /  4.8 km/h 10 mph /  16.1 km/h 61 % 0 in /  0.0 mm
14:22 73.8 °F /  23.2 °C 59 °F /  15.0 °C 30 in /  1014.4 hPa ENE 4 mph /  6.4 km/h 10 mph /  16.1 km/h 60 % 0 in /  0.0 mm
14:32 73.9 °F /  23.3 °C 58.6 °F /  14.8 °C 30 in /  1014.4 hPa NE 4 mph /  6.4 km/h 10 mph /  16.1 km/h 59 % 0 in /  0.0 mm
14:42 74.1 °F /  23.4 °C 58.8 °F /  14.9 °C 30 in /  1014.4 hPa NNW 2 mph /  3.2 km/h 10 mph /  16.1 km/h 59 % 0 in /  0.0 mm
14:47 74.3 °F /  23.5 °C 59 °F /  15.0 °C 30 in /  1014.4 hPa Calm   10 mph /  16.1 km/h 59 % 0 in /  0.0 mm
14:52 74.7 °F /  23.7 °C 59.4 °F /  15.2 °C 30 in /  1014.4 hPa East 2 mph /  3.2 km/h 10 mph /  16.1 km/h 59 % 0 in /  0.0 mm
15:02 75.4 °F /  24.1 °C 59.5 °F /  15.3 °C 30 in /  1014.4 hPa NE 6 mph /  9.7 km/h 8 mph /  12.9 km/h 58 % 0 in /  0.0 mm
15:07 75.7 °F /  24.3 °C 59.4 °F /  15.2 °C 29.9 in /  1014.1 hPa NE 3 mph /  4.8 km/h 10 mph /  16.1 km/h 57 % 0 in /  0.0 mm
15:12 76.1 °F /  24.5 °C 59.2 °F /  15.1 °C 29.9 in /  1014.1 hPa NNW 1 mph /  1.6 km/h 10 mph /  16.1 km/h 56 % 0 in /  0.0 mm
15:22 76.3 °F /  24.6 °C 59.4 °F /  15.2 °C 29.9 in /  1014.1 hPa East 5 mph /  8.0 km/h 10 mph /  16.1 km/h 56 % 0 in /  0.0 mm
15:27 76.6 °F /  24.8 °C 59.2 °F /  15.1 °C 29.9 in /  1014.1 hPa NE 6 mph /  9.7 km/h 9 mph /  14.5 km/h 55 % 0 in /  0.0 mm
15:37 76.5 °F /  24.7 °C 59.5 °F /  15.3 °C 29.9 in /  1014.1 hPa NNE 4 mph /  6.4 km/h 10 mph /  16.1 km/h 56 % 0 in /  0.0 mm
15:42 76.3 °F /  24.6 °C 59.4 °F /  15.2 °C 29.9 in /  1013.8 hPa ESE 3 mph /  4.8 km/h 10 mph /  16.1 km/h 56 % 0 in /  0.0 mm
15:52 76.8 °F /  24.9 °C 59.4 °F /  15.2 °C 29.9 in /  1013.8 hPa NE 3 mph /  4.8 km/h 7 mph /  11.3 km/h 55 % 0 in /  0.0 mm
15:57 77.2 °F /  25.1 °C 59.7 °F /  15.4 °C 29.9 in /  1013.8 hPa Calm   7 mph /  11.3 km/h 55 % 0 in /  0.0 mm
16:02 77.5 °F /  25.3 °C 60.1 °F /  15.6 °C 29.9 in /  1013.4 hPa NNE 6 mph /  9.7 km/h 7 mph /  11.3 km/h 55 % 0 in /  0.0 mm
16:12 77.7 °F /  25.4 °C 60.3 °F /  15.7 °C 29.9 in /  1013.4 hPa NNW 4 mph /  6.4 km/h 9 mph /  14.5 km/h 55 % 0 in /  0.0 mm
16:17 77.9 °F /  25.5 °C 59.9 °F /  15.5 °C 29.9 in /  1013.4 hPa NNE 11 mph /  17.7 km/h 11 mph /  17.7 km/h 54 % 0 in /  0.0 mm
16:22 77.5 °F /  25.3 °C 60.6 °F /  15.9 °C 29.9 in /  1013.1 hPa NE 5 mph /  8.0 km/h 11 mph /  17.7 km/h 56 % 0 in /  0.0 mm
16:32 77.5 °F /  25.3 °C 60.6 °F /  15.9 °C 29.9 in /  1013.1 hPa NNE 5 mph /  8.0 km/h 12 mph /  19.3 km/h 56 % 0 in /  0.0 mm
16:42 77.5 °F /  25.3 °C 60.6 °F /  15.9 °C 29.9 in /  1013.4 hPa NNE 4 mph /  6.4 km/h 12 mph /  19.3 km/h 56 % 0 in /  0.0 mm
16:52 78.1 °F /  25.6 °C 60.1 °F /  15.6 °C 29.9 in /  1013.1 hPa NE 3 mph /  4.8 km/h 8 mph /  12.9 km/h 54 % 0 in /  0.0 mm
16:57 77.7 °F /  25.4 °C 61.3 °F /  16.3 °C 29.9 in /  1013.1 hPa NE 7 mph /  11.3 km/h 11 mph /  17.7 km/h 57 % 0 in /  0.0 mm
17:02 77.4 °F /  25.2 °C 60.4 °F /  15.8 °C 29.9 in /  1013.1 hPa NNW 2 mph /  3.2 km/h 12 mph /  19.3 km/h 56 % 0 in /  0.0 mm
17:12 77.4 °F /  25.2 °C 61 °F /  16.1 °C 29.9 in /  1013.1 hPa NNE 4 mph /  6.4 km/h 12 mph /  19.3 km/h 57 % 0 in /  0.0 mm
17:17 77.4 °F /  25.2 °C 61.3 °F /  16.3 °C 29.9 in /  1013.1 hPa North 2 mph /  3.2 km/h 13 mph /  20.9 km/h 58 % 0 in /  0.0 mm
17:22 77.7 °F /  25.4 °C 60.8 °F /  16.0 °C 29.9 in /  1013.1 hPa NNE 8 mph /  12.9 km/h 13 mph /  20.9 km/h 56 % 0 in /  0.0 mm
17:32 77.2 °F /  25.1 °C 61.3 °F /  16.3 °C 29.9 in /  1013.1 hPa NNW 3 mph /  4.8 km/h 10 mph /  16.1 km/h 58 % 0 in /  0.0 mm
17:42 76.6 °F /  24.8 °C 61.2 °F /  16.2 °C 29.9 in /  1012.8 hPa NNE 8 mph /  12.9 km/h 15 mph /  24.1 km/h 59 % 0 in /  0.0 mm
17:52 76.5 °F /  24.7 °C 61 °F /  16.1 °C 29.9 in /  1012.8 hPa NNE 3 mph /  4.8 km/h 13 mph /  20.9 km/h 59 % 0 in /  0.0 mm
17:57 76.6 °F /  24.8 °C 61.2 °F /  16.2 °C 29.9 in /  1012.8 hPa NW 5 mph /  8.0 km/h 12 mph /  19.3 km/h 59 % 0 in /  0.0 mm
18:02 76.6 °F /  24.8 °C 61.7 °F /  16.5 °C 29.9 in /  1012.8 hPa NNE 11 mph /  17.7 km/h 12 mph /  19.3 km/h 60 % 0 in /  0.0 mm
18:12 76.5 °F /  24.7 °C 61.5 °F /  16.4 °C 29.9 in /  1012.8 hPa NE 6 mph /  9.7 km/h 12 mph /  19.3 km/h 60 % 0 in /  0.0 mm
18:17 76.3 °F /  24.6 °C 61.3 °F /  16.3 °C 29.9 in /  1012.8 hPa NNW 4 mph /  6.4 km/h 12 mph /  19.3 km/h 60 % 0 in /  0.0 mm
18:22 76.3 °F /  24.6 °C 61.3 °F /  16.3 °C 29.9 in /  1012.8 hPa NNW 5 mph /  8.0 km/h 12 mph /  19.3 km/h 60 % 0 in /  0.0 mm
18:32 75.9 °F /  24.4 °C 61.5 °F /  16.4 °C 29.9 in /  1012.8 hPa NW 3 mph /  4.8 km/h 11 mph /  17.7 km/h 61 % 0 in /  0.0 mm
18:42 75.9 °F /  24.4 °C 61.5 °F /  16.4 °C 29.9 in /  1012.8 hPa NNE 6 mph /  9.7 km/h 12 mph /  19.3 km/h 61 % 0 in /  0.0 mm
18:47 75.7 °F /  24.3 °C 61.3 °F /  16.3 °C 29.9 in /  1012.8 hPa NNE 5 mph /  8.0 km/h 12 mph /  19.3 km/h 61 % 0 in /  0.0 mm
18:52 75.7 °F /  24.3 °C 61.9 °F /  16.6 °C 29.9 in /  1012.8 hPa NNW 4 mph /  6.4 km/h 12 mph /  19.3 km/h 62 % 0 in /  0.0 mm
19:02 75.7 °F /  24.3 °C 61.3 °F /  16.3 °C 29.9 in /  1012.8 hPa NNW 5 mph /  8.0 km/h 12 mph /  19.3 km/h 61 % 0 in /  0.0 mm
19:12 75.9 °F /  24.4 °C 61.5 °F /  16.4 °C 29.9 in /  1012.8 hPa NE 3 mph /  4.8 km/h 11 mph /  17.7 km/h 61 % 0 in /  0.0 mm
19:17 75.9 °F /  24.4 °C 61.5 °F /  16.4 °C 29.9 in /  1012.8 hPa North 6 mph /  9.7 km/h 12 mph /  19.3 km/h 61 % 0 in /  0.0 mm
19:22 75.7 °F /  24.3 °C 61.3 °F /  16.3 °C 29.9 in /  1012.8 hPa West 1 mph /  1.6 km/h 12 mph /  19.3 km/h 61 % 0 in /  0.0 mm
19:32 75.4 °F /  24.1 °C 61.5 °F /  16.4 °C 29.9 in /  1012.8 hPa NNW 3 mph /  4.8 km/h 12 mph /  19.3 km/h 62 % 0 in /  0.0 mm
19:42 75.4 °F /  24.1 °C 61.5 °F /  16.4 °C 29.9 in /  1012.8 hPa NW 2 mph /  3.2 km/h 11 mph /  17.7 km/h 62 % 0 in /  0.0 mm
19:47 75 °F /  23.9 °C 61.5 °F /  16.4 °C 29.9 in /  1012.8 hPa NE 4 mph /  6.4 km/h 11 mph /  17.7 km/h 63 % 0 in /  0.0 mm
19:52 75 °F /  23.9 °C 61.5 °F /  16.4 °C 29.9 in /  1012.8 hPa NE 8 mph /  12.9 km/h 11 mph /  17.7 km/h 63 % 0 in /  0.0 mm
19:57 75 °F /  23.9 °C 61.5 °F /  16.4 °C 29.9 in /  1012.8 hPa East 1 mph /  1.6 km/h 9 mph /  14.5 km/h 63 % 0 in /  0.0 mm
20:02 75 °F /  23.9 °C 61.5 °F /  16.4 °C 29.9 in /  1012.8 hPa NW 3 mph /  4.8 km/h 9 mph /  14.5 km/h 63 % 0 in /  0.0 mm
20:12 74.8 °F /  23.8 °C 61.3 °F /  16.3 °C 29.9 in /  1012.8 hPa NNW 3 mph /  4.8 km/h 9 mph /  14.5 km/h 63 % 0 in /  0.0 mm
20:17 74.7 °F /  23.7 °C 61.2 °F /  16.2 °C 29.9 in /  1012.8 hPa NE 5 mph /  8.0 km/h 11 mph /  17.7 km/h 63 % 0 in /  0.0 mm
20:22 74.5 °F /  23.6 °C 61 °F /  16.1 °C 29.9 in /  1012.8 hPa NNW 4 mph /  6.4 km/h 11 mph /  17.7 km/h 63 % 0 in /  0.0 mm
20:27 74.1 °F /  23.4 °C 60.8 °F /  16.0 °C 29.9 in /  1012.8 hPa NNE 6 mph /  9.7 km/h 11 mph /  17.7 km/h 63 % 0 in /  0.0 mm
20:32 73.9 °F /  23.3 °C 60.6 °F /  15.9 °C 29.9 in /  1012.8 hPa North 7 mph /  11.3 km/h 11 mph /  17.7 km/h 63 % 0 in /  0.0 mm
20:37 73.8 °F /  23.2 °C 60.8 °F /  16.0 °C 29.9 in /  1012.8 hPa NNW 5 mph /  8.0 km/h 12 mph /  19.3 km/h 64 % 0 in /  0.0 mm
20:42 73.8 °F /  23.2 °C 60.8 °F /  16.0 °C 29.9 in /  1012.8 hPa North 3 mph /  4.8 km/h 12 mph /  19.3 km/h 64 % 0 in /  0.0 mm
20:52 73.2 °F /  22.9 °C 60.8 °F /  16.0 °C 29.9 in /  1012.8 hPa NNE 5 mph /  8.0 km/h 10 mph /  16.1 km/h 65 % 0 in /  0.0 mm
20:57 73 °F /  22.8 °C 60.6 °F /  15.9 °C 29.9 in /  1012.8 hPa North 4 mph /  6.4 km/h 8 mph /  12.9 km/h 65 % 0 in /  0.0 mm
21:02 72.9 °F /  22.7 °C 60.4 °F /  15.8 °C 29.9 in /  1012.8 hPa NNW 2 mph /  3.2 km/h 8 mph /  12.9 km/h 65 % 0 in /  0.0 mm
21:12 72.5 °F /  22.5 °C 60.4 °F /  15.8 °C 29.9 in /  1012.8 hPa NNW 2 mph /  3.2 km/h 8 mph /  12.9 km/h 66 % 0 in /  0.0 mm
21:22 72.1 °F /  22.3 °C 60.6 °F /  15.9 °C 29.9 in /  1012.8 hPa North 8 mph /  12.9 km/h 8 mph /  12.9 km/h 67 % 0 in /  0.0 mm
21:27 72 °F /  22.2 °C 60.4 °F /  15.8 °C 29.9 in /  1013.1 hPa NW 1 mph /  1.6 km/h 8 mph /  12.9 km/h 67 % 0 in /  0.0 mm
21:32 72 °F /  22.2 °C 60.4 °F /  15.8 °C 29.9 in /  1013.1 hPa NNW 4 mph /  6.4 km/h 8 mph /  12.9 km/h 67 % 0 in /  0.0 mm
21:42 71.8 °F /  22.1 °C 60.3 °F /  15.7 °C 29.9 in /  1013.1 hPa North 4 mph /  6.4 km/h 9 mph /  14.5 km/h 67 % 0 in /  0.0 mm
21:47 71.2 °F /  21.8 °C 60.1 °F /  15.6 °C 29.9 in /  1012.8 hPa North 6 mph /  9.7 km/h 10 mph /  16.1 km/h 68 % 0 in /  0.0 mm
21:52 70.5 °F /  21.4 °C 60.6 °F /  15.9 °C 29.9 in /  1014.1 hPa WSW 6 mph /  9.7 km/h 10 mph /  16.1 km/h 71 % 0 in /  0.0 mm
22:02 66.6 °F /  19.2 °C 61.2 °F /  16.2 °C 29.9 in /  1013.8 hPa WNW 9 mph /  14.5 km/h 13 mph /  20.9 km/h 83 % 0.02 in /  0.5 mm
22:12 64.2 °F /  17.9 °C 61 °F /  16.1 °C 29.9 in /  1014.1 hPa North 3 mph /  4.8 km/h 13 mph /  20.9 km/h 89 % 0.28 in /  7.1 mm
22:17 64.2 °F /  17.9 °C 61.2 °F /  16.2 °C 29.9 in /  1014.1 hPa NNW 4 mph /  6.4 km/h 10 mph /  16.1 km/h 90 % 0.3 in /  7.6 mm
22:22 64.2 °F /  17.9 °C 61.2 °F /  16.2 °C 30 in /  1014.4 hPa North 4 mph /  6.4 km/h 9 mph /  14.5 km/h 90 % 0.3 in /  7.6 mm
22:32 64.6 °F /  18.1 °C 61.3 °F /  16.3 °C 29.9 in /  1013.8 hPa WNW 5 mph /  8.0 km/h 6 mph /  9.7 km/h 89 % 0.3 in /  7.6 mm
22:42 64.6 °F /  18.1 °C 61.3 °F /  16.3 °C 29.9 in /  1013.8 hPa NW 1 mph /  1.6 km/h 8 mph /  12.9 km/h 89 % 0.3 in /  7.6 mm
22:52 64.2 °F /  17.9 °C 61 °F /  16.1 °C 30 in /  1014.8 hPa WNW 8 mph /  12.9 km/h 11 mph /  17.7 km/h 89 % 0.31 in /  7.9 mm
22:57 64.2 °F /  17.9 °C 60.6 °F /  15.9 °C 29.9 in /  1014.1 hPa NNW 3 mph /  4.8 km/h 10 mph /  16.1 km/h 88 % 0.31 in /  7.9 mm
23:02 63.7 °F /  17.6 °C 60.4 °F /  15.8 °C 30 in /  1014.4 hPa NNW 6 mph /  9.7 km/h 10 mph /  16.1 km/h 89 % 0.2 in /  5.1 mm
23:12 62.8 °F /  17.1 °C 60.1 °F /  15.6 °C 30 in /  1014.8 hPa NW 3 mph /  4.8 km/h 11 mph /  17.7 km/h 91 % 0.11 in /  2.8 mm
23:17 62.6 °F /  17.0 °C 60.3 °F /  15.7 °C 29.9 in /  1014.1 hPa NNW 5 mph /  8.0 km/h 11 mph /  17.7 km/h 92 % 0.19 in /  4.8 mm
23:22 62.6 °F /  17.0 °C 60.3 °F /  15.7 °C 29.9 in /  1013.8 hPa ENE 2 mph /  3.2 km/h 11 mph /  17.7 km/h 92 % 0.19 in /  4.8 mm
23:27 62.6 °F /  17.0 °C 59.9 °F /  15.5 °C 29.9 in /  1013.8 hPa North 6 mph /  9.7 km/h 9 mph /  14.5 km/h 91 % 0.19 in /  4.8 mm
23:32 62.8 °F /  17.1 °C 60.1 °F /  15.6 °C 29.9 in /  1013.8 hPa NNW 3 mph /  4.8 km/h 10 mph /  16.1 km/h 91 % 0.19 in /  4.8 mm
23:42 62.8 °F /  17.1 °C 59.7 °F /  15.4 °C 29.9 in /  1014.1 hPa WNW 11 mph /  17.7 km/h 11 mph /  17.7 km/h 90 % 0.19 in /  4.8 mm
23:52 61.5 °F /  16.4 °C 58.6 °F /  14.8 °C 29.9 in /  1014.1 hPa NNW 3 mph /  4.8 km/h 14 mph /  22.5 km/h 90 % 0.24 in /  6.1 mm
23:57 61.2 °F /  16.2 °C 58.5 °F /  14.7 °C 29.9 in /  1013.8 hPa East 5 mph /  8.0 km/h 14 mph /  22.5 km/h 91 % 0.34 in /  8.6 mm
Meteo18
Compliments of Weather Underground - 4 mb

Script developed by  Jim McMurry - jmcmurry@mwt.net Adapted for the template by  Wim van der Kuil - Leuven-Template.eu

You find our weather info also at:

European Weather Network

Weather Underground

Equipment we use:

Weather-station
Davis Vue

Weather-program
Meteohub

Weather-server
Raspberry PI 2 B+

Provider
1 and 1

Davis Vue

Meteohub

Raspberry PI 2 B+

1 and 1